createdAt,value
2023-02-28T00:01:25.551Z,60.15
2023-02-28T00:05:02.077Z,60.27
2023-02-28T00:08:26.040Z,60.83
2023-02-28T00:11:50.016Z,60.84
2023-02-28T00:15:14.376Z,61.53
2023-02-28T00:18:38.860Z,61.70
2023-02-28T00:22:02.711Z,62.02
2023-02-28T00:25:28.134Z,61.93
2023-02-28T00:28:54.664Z,62.15
2023-02-28T00:32:20.878Z,62.11
2023-02-28T00:35:47.404Z,62.90
2023-02-28T00:39:11.462Z,64.92
2023-02-28T00:42:36.569Z,64.77
2023-02-28T00:46:02.243Z,63.47
2023-02-28T00:49:28.831Z,63.13
2023-02-28T00:52:52.814Z,63.11
2023-02-28T00:56:17.825Z,62.92
2023-02-28T00:59:41.804Z,62.92
2023-02-28T01:03:05.783Z,63.19
2023-02-28T01:06:29.932Z,63.27
2023-02-28T01:09:53.792Z,63.18
2023-02-28T01:13:18.450Z,63.18
2023-02-28T01:16:42.442Z,63.47
2023-02-28T01:20:07.012Z,63.85
2023-02-28T01:23:30.842Z,64.26
2023-02-28T01:26:54.654Z,64.66
2023-02-28T01:30:19.049Z,65.00
2023-02-28T01:33:44.593Z,65.26
2023-02-28T01:37:08.512Z,65.41
2023-02-28T01:40:32.530Z,65.74
2023-02-28T01:44:05.304Z,65.90
2023-02-28T01:47:41.014Z,65.56
2023-02-28T01:51:13.579Z,66.13
2023-02-28T01:54:37.879Z,66.09
2023-02-28T01:58:06.356Z,66.24
2023-02-28T02:01:32.802Z,66.77
2023-02-28T02:05:07.128Z,67.34
2023-02-28T02:08:31.623Z,67.46
2023-02-28T02:11:57.642Z,67.70
2023-02-28T02:15:50.001Z,67.82
2023-02-28T02:19:28.573Z,67.91
2023-02-28T02:23:17.945Z,68.23
2023-02-28T02:27:00.151Z,68.72
2023-02-28T02:31:08.840Z,68.71
2023-02-28T02:34:54.111Z,68.80
2023-02-28T02:38:36.414Z,69.56
2023-02-28T02:42:05.199Z,69.43
2023-02-28T02:45:37.935Z,69.41
2023-02-28T02:49:06.459Z,69.51
2023-02-28T02:52:37.773Z,69.68
2023-02-28T02:56:04.099Z,69.73
2023-02-28T02:59:30.201Z,69.72
2023-02-28T03:02:57.005Z,69.72
2023-02-28T03:06:21.355Z,69.63
2023-02-28T03:09:54.604Z,69.11
2023-02-28T03:13:36.929Z,69.23
2023-02-28T03:17:20.653Z,70.02
2023-02-28T03:21:08.760Z,70.29
2023-02-28T03:24:47.723Z,70.02
2023-02-28T03:28:15.837Z,69.82
2023-02-28T03:31:44.027Z,70.16
2023-02-28T03:35:23.248Z,70.16
2023-02-28T03:38:59.742Z,69.79
2023-02-28T03:42:27.973Z,69.51
2023-02-28T03:45:53.614Z,69.63
2023-02-28T03:49:29.402Z,69.69
2023-02-28T03:53:13.610Z,69.70
2023-02-28T03:56:45.654Z,70.06
2023-02-28T04:00:45.783Z,70.12
2023-02-28T04:04:14.375Z,69.62
2023-02-28T04:07:39.421Z,69.58
2023-02-28T04:11:08.893Z,69.93
2023-02-28T04:14:32.837Z,70.39
2023-02-28T04:17:56.814Z,70.51
2023-02-28T04:21:23.196Z,70.27
2023-02-28T04:24:47.128Z,70.10
2023-02-28T04:28:14.131Z,70.12
2023-02-28T04:31:38.176Z,70.84
2023-02-28T04:35:04.366Z,71.25
2023-02-28T04:38:28.225Z,71.32
2023-02-28T04:41:52.647Z,71.34
2023-02-28T04:45:16.610Z,71.04
2023-02-28T04:48:41.701Z,70.67
2023-02-28T04:52:06.429Z,70.67
2023-02-28T04:55:30.230Z,70.90
2023-02-28T04:58:54.242Z,71.58
2023-02-28T05:02:18.221Z,71.02
2023-02-28T05:05:42.088Z,70.53
2023-02-28T05:09:05.927Z,70.37
2023-02-28T05:12:29.862Z,70.22
2023-02-28T05:15:53.771Z,70.23
2023-02-28T05:19:17.765Z,70.13
2023-02-28T05:22:43.156Z,70.57
2023-02-28T05:26:07.101Z,70.42
2023-02-28T05:29:31.012Z,70.38
2023-02-28T05:32:54.923Z,70.26
2023-02-28T05:36:18.777Z,70.19
2023-02-28T05:39:42.695Z,70.26
2023-02-28T05:43:06.636Z,69.74
2023-02-28T05:46:30.536Z,69.54
2023-02-28T05:49:54.399Z,69.45
2023-02-28T05:53:18.444Z,69.15
2023-02-28T05:56:45.147Z,68.47
2023-02-28T06:00:12.551Z,68.34
2023-02-28T06:03:36.797Z,68.57
2023-02-28T06:07:00.865Z,67.83
2023-02-28T06:10:25.026Z,67.57
2023-02-28T06:13:49.845Z,67.06
2023-02-28T06:17:13.627Z,66.79
2023-02-28T06:20:37.602Z,66.71
2023-02-28T06:24:01.798Z,65.98
2023-02-28T06:27:25.947Z,65.67
2023-02-28T06:30:50.114Z,65.46
2023-02-28T06:34:15.956Z,65.13
2023-02-28T06:37:41.699Z,65.22
2023-02-28T06:41:07.144Z,65.37
2023-02-28T06:44:36.209Z,65.24
2023-02-28T06:48:01.309Z,64.30
2023-02-28T06:51:25.522Z,64.00
2023-02-28T06:55:00.880Z,62.16
2023-02-28T06:58:24.835Z,62.62
2023-02-28T07:01:49.315Z,61.70
2023-02-28T07:05:13.331Z,61.60
2023-02-28T07:08:38.036Z,61.51
2023-02-28T07:12:02.059Z,61.89
2023-02-28T07:15:26.295Z,61.90
2023-02-28T07:18:50.522Z,61.40
2023-02-28T07:22:15.956Z,60.93
2023-02-28T07:25:40.504Z,59.72
2023-02-28T07:29:04.559Z,58.94
2023-02-28T07:32:28.426Z,59.38
2023-02-28T07:35:52.532Z,60.60
2023-02-28T07:39:16.418Z,60.00
2023-02-28T07:42:41.454Z,60.12
2023-02-28T07:46:08.798Z,60.46
2023-02-28T07:49:33.198Z,60.14
2023-02-28T07:52:57.273Z,60.39
2023-02-28T07:56:21.152Z,60.35
2023-02-28T07:59:46.177Z,59.66
2023-02-28T08:03:15.102Z,59.49
2023-02-28T08:06:39.139Z,58.82
2023-02-28T08:10:03.027Z,58.95
2023-02-28T08:13:28.342Z,57.12
2023-02-28T08:16:52.305Z,57.69
2023-02-28T08:20:16.276Z,57.05
2023-02-28T08:23:40.257Z,56.80
2023-02-28T08:27:04.116Z,57.46
2023-02-28T08:30:28.032Z,56.10
2023-02-28T08:33:54.241Z,56.74
2023-02-28T08:37:18.248Z,56.95
2023-02-28T08:40:42.455Z,56.49
2023-02-28T08:44:07.205Z,54.24
2023-02-28T08:47:31.323Z,54.35
2023-02-28T08:51:27.412Z,54.37
2023-02-28T08:54:51.740Z,55.34
2023-02-28T08:58:16.709Z,55.13
2023-02-28T09:01:42.389Z,54.74
2023-02-28T09:05:07.169Z,54.95
2023-02-28T09:08:32.803Z,53.45
2023-02-28T09:11:57.799Z,53.48
2023-02-28T09:15:21.654Z,53.27
2023-02-28T09:18:46.471Z,53.39
2023-02-28T09:22:12.769Z,53.88
2023-02-28T09:25:37.204Z,53.17
2023-02-28T09:29:01.007Z,50.05
2023-02-28T09:32:25.004Z,49.65
2023-02-28T09:35:50.540Z,49.75
2023-02-28T09:39:16.515Z,49.09
2023-02-28T09:42:41.023Z,49.14
2023-02-28T09:46:16.428Z,49.32
2023-02-28T09:49:48.074Z,49.97
2023-02-28T09:53:22.130Z,49.49
2023-02-28T09:56:52.921Z,49.54
2023-02-28T10:00:25.677Z,49.63
2023-02-28T10:04:01.214Z,50.41
2023-02-28T10:07:52.848Z,50.53
2023-02-28T10:11:21.692Z,50.99
2023-02-28T10:14:49.849Z,50.97
2023-02-28T10:18:21.949Z,50.62
2023-02-28T10:21:57.097Z,50.43
2023-02-28T10:25:27.079Z,51.40
2023-02-28T10:28:55.364Z,51.08
2023-02-28T10:32:25.872Z,51.77
2023-02-28T10:35:50.297Z,52.20
2023-02-28T10:39:41.537Z,52.13
2023-02-28T10:43:08.344Z,53.44
2023-02-28T10:46:35.933Z,53.46
2023-02-28T10:50:00.196Z,52.77
2023-02-28T10:53:24.617Z,52.11
2023-02-28T10:57:09.613Z,52.15
2023-02-28T11:00:36.964Z,52.87
2023-02-28T11:04:04.450Z,53.19
2023-02-28T11:07:37.256Z,53.17
2023-02-28T11:11:08.779Z,53.00
2023-02-28T11:14:51.336Z,53.64
2023-02-28T11:18:15.230Z,52.56
2023-02-28T11:21:41.137Z,50.79
2023-02-28T11:25:09.826Z,51.32
2023-02-28T11:28:39.190Z,50.91
2023-02-28T11:32:15.496Z,50.15
2023-02-28T11:35:41.701Z,50.50
2023-02-28T11:39:13.784Z,50.71
2023-02-28T11:42:45.787Z,50.98
2023-02-28T11:46:31.535Z,51.03
2023-02-28T11:50:20.476Z,51.05
2023-02-28T11:54:03.386Z,50.67
2023-02-28T11:57:33.148Z,50.49
2023-02-28T12:01:00.209Z,50.39
2023-02-28T12:04:56.952Z,51.04
2023-02-28T12:08:39.496Z,50.91
2023-02-28T12:12:03.830Z,51.24
2023-02-28T12:15:39.780Z,51.44
2023-02-28T12:19:09.190Z,51.04
2023-02-28T12:22:40.117Z,51.03
2023-02-28T12:26:22.459Z,50.88
2023-02-28T12:29:56.302Z,50.86
2023-02-28T12:33:28.466Z,50.73
2023-02-28T12:37:01.849Z,50.34
2023-02-28T12:40:31.444Z,50.04
2023-02-28T12:44:02.707Z,49.20
2023-02-28T12:47:26.623Z,49.79
2023-02-28T12:50:50.941Z,49.51
2023-02-28T12:54:30.877Z,50.29
2023-02-28T12:58:12.858Z,51.16
2023-02-28T13:01:48.979Z,50.08
2023-02-28T13:05:31.463Z,49.03
2023-02-28T13:09:03.141Z,49.31
2023-02-28T13:12:27.991Z,50.08
2023-02-28T13:16:12.034Z,49.98
2023-02-28T13:19:40.607Z,50.28
2023-02-28T13:23:06.452Z,50.83
2023-02-28T13:26:33.520Z,50.41
2023-02-28T13:29:57.378Z,50.38
2023-02-28T13:33:26.064Z,50.30
2023-02-28T13:36:50.160Z,50.42
2023-02-28T13:40:38.237Z,50.64
2023-02-28T13:44:18.650Z,49.91
2023-02-28T13:47:46.158Z,49.59
2023-02-28T13:51:41.767Z,50.26
2023-02-28T13:55:29.288Z,50.36
2023-02-28T13:59:16.094Z,49.97
2023-02-28T14:02:54.882Z,49.91
2023-02-28T14:06:28.523Z,50.06
2023-02-28T14:10:06.617Z,50.10
2023-02-28T14:13:45.785Z,50.02
2023-02-28T14:17:16.326Z,50.04
2023-02-28T14:20:43.041Z,50.52
2023-02-28T14:24:31.843Z,50.42
2023-02-28T14:28:14.973Z,51.29
2023-02-28T14:32:09.090Z,51.49
2023-02-28T14:36:16.876Z,50.61
2023-02-28T14:40:15.802Z,49.32
2023-02-28T14:44:16.773Z,50.00
2023-02-28T14:48:16.841Z,50.43
2023-02-28T14:52:37.788Z,50.39
2023-02-28T14:56:44.860Z,50.60
2023-02-28T15:00:47.747Z,50.58
2023-02-28T15:04:45.806Z,50.31
2023-02-28T15:08:43.733Z,50.87
2023-02-28T15:12:41.740Z,51.18
2023-02-28T15:16:52.791Z,51.27
2023-02-28T15:20:54.908Z,51.55
2023-02-28T15:25:00.778Z,51.84
2023-02-28T15:28:59.804Z,52.23
2023-02-28T15:32:57.766Z,52.35
2023-02-28T15:36:56.783Z,52.13
2023-02-28T15:41:03.697Z,52.21
2023-02-28T15:45:01.742Z,53.35
2023-02-28T15:49:06.793Z,53.06
2023-02-28T15:53:05.771Z,52.87
2023-02-28T15:57:07.661Z,53.10
2023-02-28T16:01:20.389Z,53.31
2023-02-28T16:05:42.741Z,53.48
2023-02-28T16:09:40.726Z,53.66
2023-02-28T16:13:38.699Z,53.79
2023-02-28T16:17:41.796Z,54.18
2023-02-28T16:21:40.718Z,56.55
2023-02-28T16:25:44.671Z,56.60
2023-02-28T16:29:47.629Z,56.37
2023-02-28T16:33:48.710Z,55.58
2023-02-28T16:37:46.816Z,55.13
2023-02-28T16:41:44.683Z,55.50
2023-02-28T16:45:45.738Z,55.69
2023-02-28T16:49:43.758Z,57.05
2023-02-28T16:53:41.581Z,59.11
2023-02-28T16:57:39.617Z,58.66
2023-02-28T17:01:37.781Z,58.18
2023-02-28T17:05:36.604Z,58.29
2023-02-28T17:09:43.031Z,60.01
2023-02-28T17:13:41.560Z,60.25
2023-02-28T17:17:39.606Z,59.54
2023-02-28T17:21:37.593Z,59.35
2023-02-28T17:25:36.625Z,59.26
2023-02-28T17:29:37.845Z,59.32
2023-02-28T17:33:35.563Z,59.45
2023-02-28T17:37:33.660Z,59.94
2023-02-28T17:41:31.611Z,63.37
2023-02-28T17:45:30.616Z,64.40
2023-02-28T17:49:30.763Z,64.69
2023-02-28T17:53:30.596Z,64.87
2023-02-28T17:57:31.521Z,64.94
2023-02-28T18:01:29.589Z,65.70
2023-02-28T18:05:27.457Z,66.35
2023-02-28T18:09:25.525Z,66.10
2023-02-28T18:13:23.466Z,65.93
2023-02-28T18:17:21.538Z,65.93
2023-02-28T18:21:20.665Z,65.99
2023-02-28T18:25:23.478Z,66.04
2023-02-28T18:29:22.450Z,66.07
2023-02-28T18:33:20.435Z,66.27
2023-02-28T18:37:18.500Z,66.74
2023-02-28T18:41:19.518Z,67.10
2023-02-28T18:45:17.444Z,66.85
2023-02-28T18:49:15.444Z,66.85
2023-02-28T18:53:13.457Z,67.03
2023-02-28T18:57:13.581Z,67.42
2023-02-28T19:01:11.578Z,67.64
2023-02-28T19:05:09.440Z,68.30
2023-02-28T19:09:16.527Z,68.96
2023-02-28T19:13:16.563Z,68.43
2023-02-28T19:17:14.448Z,68.39
2023-02-28T19:21:14.460Z,68.37
2023-02-28T19:25:12.442Z,68.92
2023-02-28T19:29:10.524Z,69.25
2023-02-28T19:33:08.383Z,69.58
2023-02-28T19:37:06.474Z,69.57
2023-02-28T19:41:04.356Z,69.53
2023-02-28T19:45:02.441Z,69.83
2023-02-28T19:49:00.341Z,70.00
2023-02-28T19:53:00.392Z,70.33
2023-02-28T19:56:58.425Z,70.54
2023-02-28T20:00:56.441Z,70.73
2023-02-28T20:04:55.402Z,70.45
2023-02-28T20:08:54.413Z,70.42
2023-02-28T20:12:52.386Z,70.62
2023-02-28T20:16:51.579Z,70.65
2023-02-28T20:20:49.301Z,70.46
2023-02-28T20:24:47.306Z,70.70
2023-02-28T20:28:45.339Z,70.95
2023-02-28T20:32:45.406Z,72.32
2023-02-28T20:36:43.267Z,72.64
2023-02-28T20:40:41.299Z,72.38
2023-02-28T20:44:39.298Z,72.19
2023-02-28T20:48:37.308Z,72.42
2023-02-28T20:52:36.363Z,72.19
2023-02-28T20:56:36.327Z,72.18
2023-02-28T21:00:34.249Z,72.01
2023-02-28T21:04:35.266Z,72.28
2023-02-28T21:08:33.315Z,72.38
2023-02-28T21:12:31.322Z,72.67
2023-02-28T21:16:32.416Z,72.86
2023-02-28T21:20:30.220Z,72.95
2023-02-28T21:24:31.233Z,73.25
2023-02-28T21:28:29.229Z,73.53
2023-02-28T21:32:27.191Z,73.83
2023-02-28T21:36:28.414Z,73.94
2023-02-28T21:40:26.156Z,74.44
2023-02-28T21:44:25.210Z,74.40
2023-02-28T21:48:23.123Z,74.09
2023-02-28T21:52:21.217Z,73.62
2023-02-28T21:56:22.181Z,73.41
2023-02-28T22:00:20.176Z,73.15
2023-02-28T22:04:28.145Z,72.75
2023-02-28T22:08:26.132Z,72.96
2023-02-28T22:12:24.162Z,73.48
2023-02-28T22:16:26.511Z,74.33
2023-02-28T22:20:27.232Z,75.00
2023-02-28T22:24:27.190Z,75.74
2023-02-28T22:28:25.095Z,76.37
2023-02-28T22:32:23.212Z,76.46
2023-02-28T22:36:22.093Z,76.18
2023-02-28T22:40:20.115Z,75.93
2023-02-28T22:44:19.123Z,75.72
2023-02-28T22:48:18.149Z,75.71
2023-02-28T22:52:16.185Z,75.67
2023-02-28T22:56:15.069Z,75.54
2023-02-28T23:00:13.025Z,75.46
2023-02-28T23:04:18.091Z,75.49
2023-02-28T23:08:16.036Z,75.82
2023-02-28T23:12:14.097Z,75.91
2023-02-28T23:16:13.043Z,75.94
2023-02-28T23:20:11.082Z,75.86
2023-02-28T23:24:08.994Z,75.92
2023-02-28T23:28:07.067Z,75.89
2023-02-28T23:32:05.049Z,75.61
2023-02-28T23:36:03.041Z,75.43
2023-02-28T23:40:01.084Z,75.21
2023-02-28T23:43:58.976Z,75.05
2023-02-28T23:47:56.971Z,75.01
2023-02-28T23:51:55.943Z,75.18
2023-02-28T23:55:59.950Z,75.13
2023-02-28T23:59:57.969Z,75.03
